Time;durP1;ratioP1;P1;durP2;ratioP2;P2;SDS_P1;SDS_P2;PMS_P1;PMS_P2;Temp;Humidity;BMP_temperature;BMP_pressure;BME280_temperature;BME280_humidity;BME280_pressure;Samples;Min_cycle;Max_cycle;Signal;HPM_P1;HPM_P2
2024/01/29 00:00:53;;;;;;;16.83;14.97;;;;;;;1.38;94.27;94253.69;5010099;28;20654;-77
2024/01/29 00:03:18;;;;;;;17.63;16.03;;;;;;;1.46;93.65;94252.78;5004989;28;20187;-77
2024/01/29 00:05:44;;;;;;;18.03;16.33;;;;;;;1.70;92.31;94259.34;5007418;28;20230;-77
2024/01/29 00:08:10;;;;;;;16.00;14.53;;;;;;;1.67;93.88;94265.63;5070511;28;20276;-77
2024/01/29 00:10:35;;;;;;;15.83;14.40;;;;;;;1.63;93.27;94254.91;5002571;28;20223;-77
2024/01/29 00:13:00;;;;;;;17.60;15.90;;;;;;;1.41;93.20;94245.63;5006110;28;20191;-77
2024/01/29 00:15:26;;;;;;;17.20;15.40;;;;;;;1.64;93.93;94266.00;5014713;28;20179;-77
2024/01/29 00:17:51;;;;;;;17.40;15.50;;;;;;;1.64;93.82;94266.81;5018327;28;20222;-77
2024/01/29 00:20:16;;;;;;;18.70;16.83;;;;;;;1.94;91.98;94264.09;4997755;28;20231;-77
2024/01/29 00:22:42;;;;;;;19.07;17.33;;;;;;;1.78;91.85;94262.56;4995933;28;20180;-77
2024/01/29 00:25:08;;;;;;;19.27;17.17;;;;;;;1.53;95.15;94248.47;4994143;28;20241;-76
2024/01/29 00:27:33;;;;;;;18.10;16.27;;;;;;;1.51;93.60;94260.72;4992321;28;20196;-76
2024/01/29 00:30:01;;;;;;;17.03;15.33;;;;;;;1.67;93.29;94269.03;4991457;28;20195;-77
2024/01/29 00:32:27;;;;;;;16.73;15.17;;;;;;;1.91;91.81;94256.75;4990953;28;20228;-77
2024/01/29 00:34:53;;;;;;;18.00;15.90;;;;;;;1.79;91.65;94271.09;4990989;28;20195;-76
2024/01/29 00:37:19;;;;;;;16.97;15.37;;;;;;;1.58;92.05;94234.09;4995922;28;20224;-76
2024/01/29 00:39:44;;;;;;;18.73;16.83;;;;;;;1.72;92.42;94254.78;5006616;28;20224;-78
2024/01/29 00:42:10;;;;;;;16.13;14.60;;;;;;;1.80;92.23;94275.25;4992807;28;20250;-76
2024/01/29 00:44:35;;;;;;;17.90;16.40;;;;;;;1.57;93.42;94275.47;5001031;28;20184;-76
2024/01/29 00:47:00;;;;;;;16.30;14.67;;;;;;;1.58;92.86;94271.91;4999115;28;20216;-77
2024/01/29 00:49:26;;;;;;;18.27;16.10;;;;;;;1.46;93.83;94276.72;4996325;28;20259;-77
2024/01/29 00:51:51;;;;;;;17.13;15.83;;;;;;;1.36;94.44;94265.94;5004148;28;20235;-76
2024/01/29 00:54:18;;;;;;;17.23;14.83;;;;;;;1.29;94.04;94236.75;5003494;28;20192;-76
2024/01/29 00:56:43;;;;;;;17.67;16.03;;;;;;;1.48;93.80;94254.19;5009467;28;20255;-76
2024/01/29 00:59:09;;;;;;;17.10;15.60;;;;;;;1.65;92.83;94263.25;5007585;28;20179;-77
2024/01/29 01:01:34;;;;;;;17.57;15.97;;;;;;;1.58;93.10;94270.13;5006454;28;20276;-78
2024/01/29 01:03:59;;;;;;;16.53;15.03;;;;;;;1.44;94.00;94276.13;5006752;28;20188;-77
2024/01/29 01:06:25;;;;;;;15.67;14.17;;;;;;;1.58;94.01;94272.69;4998883;28;20594;-77
2024/01/29 01:08:50;;;;;;;17.33;15.63;;;;;;;1.39;93.89;94262.19;5006198;28;20307;-77
2024/01/29 01:11:15;;;;;;;16.87;15.13;;;;;;;1.19;94.14;94256.84;5007072;28;20230;-77
2024/01/29 01:13:40;;;;;;;16.67;15.00;;;;;;;1.31;94.53;94275.16;5007114;28;20219;-77
2024/01/29 01:16:06;;;;;;;15.97;14.60;;;;;;;1.33;95.01;94276.59;4996953;28;20259;-77
2024/01/29 01:18:31;;;;;;;16.80;15.27;;;;;;;0.94;95.71;94236.78;4998116;28;20218;-77
2024/01/29 01:20:56;;;;;;;17.53;16.07;;;;;;;1.21;96.12;94280.63;4999395;28;20739;-78
2024/01/29 01:23:22;;;;;;;16.83;15.17;;;;;;;1.17;95.59;94256.22;4997060;28;20192;-77
2024/01/29 01:25:47;;;;;;;17.23;15.80;;;;;;;1.34;95.50;94280.75;5010724;28;20290;-77
2024/01/29 01:28:12;;;;;;;15.90;14.50;;;;;;;1.41;95.08;94280.81;5003644;28;20192;-78
2024/01/29 01:30:38;;;;;;;16.93;15.07;;;;;;;1.24;95.15;94266.59;4996154;28;20220;-77
2024/01/29 01:33:03;;;;;;;15.70;14.37;;;;;;;1.32;95.03;94249.25;5017167;28;20713;-77
2024/01/29 01:35:28;;;;;;;17.00;15.53;;;;;;;1.48;94.44;94286.81;4998682;28;20227;-76
2024/01/29 01:37:54;;;;;;;16.67;15.17;;;;;;;1.38;94.93;94271.72;4998869;28;20200;-77
2024/01/29 01:40:19;;;;;;;17.07;15.23;;;;;;;1.13;95.60;94249.88;5067703;28;20224;-77
2024/01/29 01:42:45;;;;;;;16.13;14.57;;;;;;;1.40;96.19;94269.72;5007161;28;20239;-76
2024/01/29 01:45:11;;;;;;;16.47;14.93;;;;;;;1.37;94.98;94275.25;4995517;28;20214;-77
2024/01/29 01:47:37;;;;;;;17.23;15.73;;;;;;;1.19;94.66;94240.63;4997221;28;20202;-77
2024/01/29 01:50:07;;;;;;;15.87;14.43;;;;;;;1.31;94.92;94252.81;5007545;28;20194;-77
2024/01/29 01:52:33;;;;;;;16.67;15.17;;;;;;;1.70;94.16;94277.38;5001313;28;20253;-77
2024/01/29 01:54:59;;;;;;;17.50;15.73;;;;;;;1.64;93.57;94281.47;5007343;28;20191;-77
2024/01/29 01:57:24;;;;;;;17.13;15.30;;;;;;;1.75;93.57;94282.75;5000973;28;20226;-76
2024/01/29 01:59:50;;;;;;;16.47;15.00;;;;;;;1.92;91.98;94279.72;5002997;28;20210;-76
2024/01/29 02:02:15;;;;;;;16.73;15.10;;;;;;;1.90;92.31;94278.34;5002530;28;20288;-76
2024/01/29 02:04:40;;;;;;;15.70;14.20;;;;;;;1.77;92.38;94280.78;5002652;28;20200;-76
2024/01/29 02:07:06;;;;;;;16.30;14.90;;;;;;;1.82;92.49;94281.03;4994683;28;20234;-77
2024/01/29 02:09:33;;;;;;;16.27;14.63;;;;;;;1.67;93.32;94272.59;5002009;28;20274;-76
2024/01/29 02:11:58;;;;;;;17.53;14.43;;;;;;;1.75;92.52;94267.28;5005543;28;20219;-77
2024/01/29 02:14:24;;;;;;;16.73;15.30;;;;;;;1.97;92.37;94274.03;5001832;28;20202;-77
2024/01/29 02:16:49;;;;;;;15.27;13.97;;;;;;;1.85;92.10;94280.66;5010283;28;20231;-76
2024/01/29 02:19:16;;;;;;;16.47;14.83;;;;;;;2.04;91.44;94282.63;4998451;28;20206;-78
2024/01/29 02:21:42;;;;;;;14.90;13.73;;;;;;;1.94;90.68;94266.66;5004075;28;20219;-77
2024/01/29 02:24:08;;;;;;;15.60;14.10;;;;;;;1.87;91.75;94287.22;5010303;28;20191;-77
2024/01/29 02:26:33;;;;;;;15.50;14.17;;;;;;;1.91;90.16;94260.13;5004673;28;20335;-76
2024/01/29 02:28:58;;;;;;;15.37;14.13;;;;;;;2.02;90.27;94279.44;5010259;28;20202;-72
2024/01/29 02:31:24;;;;;;;16.57;14.90;;;;;;;1.98;91.15;94281.56;5006031;28;20242;-76
2024/01/29 02:33:50;;;;;;;16.40;14.90;;;;;;;1.75;91.67;94277.59;5006934;28;20240;-80
2024/01/29 02:36:16;;;;;;;16.53;15.13;;;;;;;1.78;91.64;94267.72;5005590;28;20302;-75
2024/01/29 02:38:42;;;;;;;15.50;14.07;;;;;;;1.90;91.41;94280.91;5007242;28;20226;-78
2024/01/29 02:41:08;;;;;;;15.47;13.93;;;;;;;1.91;90.86;94269.63;5001571;28;20244;-78
2024/01/29 02:43:33;;;;;;;16.70;15.23;;;;;;;1.99;91.36;94279.78;4995069;28;20755;-77
2024/01/29 02:45:58;;;;;;;16.57;14.93;;;;;;;1.77;92.12;94280.78;4998322;28;20245;-77
2024/01/29 02:48:24;;;;;;;15.10;13.63;;;;;;;1.86;91.86;94283.06;4997263;28;20257;-77
2024/01/29 02:50:49;;;;;;;16.03;14.50;;;;;;;1.86;90.79;94290.78;5004860;28;20224;-77
2024/01/29 02:53:14;;;;;;;18.87;15.17;;;;;;;2.08;89.99;94291.56;5010997;28;20179;-76
2024/01/29 02:55:40;;;;;;;14.97;13.40;;;;;;;1.96;90.07;94282.75;5014696;28;20231;-78
2024/01/29 02:58:05;;;;;;;15.77;14.43;;;;;;;2.00;89.97;94283.97;5012255;28;20223;-77
2024/01/29 03:00:31;;;;;;;15.00;13.57;;;;;;;1.89;91.00;94292.19;5008808;28;20224;-77
2024/01/29 03:02:57;;;;;;;17.07;15.67;;;;;;;1.95;90.19;94269.06;5019312;28;20183;-77
2024/01/29 03:05:22;;;;;;;17.33;15.73;;;;;;;2.19;89.64;94291.06;5033525;28;20189;-77
2024/01/29 03:07:48;;;;;;;16.03;14.53;;;;;;;2.13;89.09;94277.16;5030631;28;20203;-77
2024/01/29 03:10:13;;;;;;;17.37;15.87;;;;;;;1.78;89.26;94213.66;5009207;28;20339;-77
2024/01/29 03:12:39;;;;;;;16.10;14.67;;;;;;;2.08;89.36;94284.63;5010291;28;20744;-77
2024/01/29 03:15:05;;;;;;;14.83;13.77;;;;;;;1.98;89.11;94271.25;5003136;28;20199;-78
2024/01/29 03:17:30;;;;;;;16.17;14.80;;;;;;;1.92;90.15;94281.50;5098057;28;20428;-77
2024/01/29 03:19:56;;;;;;;14.73;13.43;;;;;;;2.00;89.66;94289.09;5097086;28;20845;-78
2024/01/29 03:22:22;;;;;;;15.47;14.37;;;;;;;1.92;91.09;94284.06;5018294;28;20509;-76
2024/01/29 03:24:47;;;;;;;15.80;14.67;;;;;;;2.05;90.88;94281.63;5009610;28;20190;-77
2024/01/29 03:27:12;;;;;;;17.47;15.83;;;;;;;2.06;90.62;94290.94;5009220;28;20280;-77
2024/01/29 03:29:38;;;;;;;15.37;13.97;;;;;;;1.77;91.14;94280.78;4994800;28;20177;-77
2024/01/29 03:32:03;;;;;;;17.13;14.87;;;;;;;1.85;91.09;94285.81;5003855;28;20277;-77
2024/01/29 03:34:29;;;;;;;15.77;14.47;;;;;;;1.97;90.46;94282.56;5004770;28;20208;-77
2024/01/29 03:36:54;;;;;;;15.70;14.27;;;;;;;1.94;90.80;94288.09;5010802;28;20226;-77
2024/01/29 03:39:19;;;;;;;15.73;14.63;;;;;;;1.91;90.07;94283.31;5048560;28;20257;-77
2024/01/29 03:41:45;;;;;;;15.97;14.50;;;;;;;1.94;90.53;94290.66;5033923;28;20301;-77
2024/01/29 03:44:10;;;;;;;18.27;15.30;;;;;;;2.14;90.55;94277.94;5005178;28;20191;-77
2024/01/29 03:46:36;;;;;;;16.33;14.97;;;;;;;2.25;89.12;94285.16;5009527;28;20222;-77
2024/01/29 03:49:01;;;;;;;16.70;15.20;;;;;;;2.09;90.38;94290.56;5027788;28;20622;-77
2024/01/29 03:51:26;;;;;;;15.60;14.20;;;;;;;2.19;90.43;94280.75;5007588;28;20349;-77
2024/01/29 03:53:52;;;;;;;16.20;14.90;;;;;;;2.24;90.56;94283.56;5004891;28;20191;-76
2024/01/29 03:56:17;;;;;;;15.97;14.63;;;;;;;2.33;89.51;94293.56;4994261;28;20223;-76
2024/01/29 03:58:42;;;;;;;16.57;15.17;;;;;;;2.05;90.82;94289.34;5003429;28;20195;-77
2024/01/29 04:01:08;;;;;;;16.77;15.27;;;;;;;1.88;91.68;94275.94;4997214;28;20263;-77
2024/01/29 04:03:33;;;;;;;17.93;15.93;;;;;;;1.99;91.23;94287.53;5007621;28;20206;-76
2024/01/29 04:05:59;;;;;;;18.03;15.03;;;;;;;2.15;91.19;94284.69;5006436;28;20231;-76
2024/01/29 04:08:24;;;;;;;16.73;15.27;;;;;;;1.99;91.09;94279.78;5005545;28;20191;-77
2024/01/29 04:10:49;;;;;;;15.87;14.47;;;;;;;1.90;91.68;94286.84;5006071;28;20243;-77
2024/01/29 04:13:15;;;;;;;17.70;15.97;;;;;;;2.03;92.10;94286.16;5005479;28;20195;-77
2024/01/29 04:15:40;;;;;;;18.03;16.27;;;;;;;2.00;91.15;94273.66;5005469;28;20242;-77
2024/01/29 04:18:06;;;;;;;17.37;15.77;;;;;;;2.23;90.85;94287.91;5008182;28;20217;-76
2024/01/29 04:20:31;;;;;;;17.90;16.30;;;;;;;1.70;91.43;94218.16;5011281;28;20253;-75
2024/01/29 04:22:56;;;;;;;19.77;17.63;;;;;;;2.31;90.80;94294.72;5002599;28;20179;-77
2024/01/29 04:25:22;;;;;;;24.70;21.03;;;;;;;2.13;91.57;94272.00;5014882;28;20179;-76
2024/01/29 04:27:48;;;;;;;24.33;20.63;;;;;;;2.18;92.33;94304.94;5009001;28;20194;-76
2024/01/29 04:30:14;;;;;;;21.53;18.43;;;;;;;2.00;93.88;94289.09;5008139;28;20192;-76
2024/01/29 04:32:39;;;;;;;20.93;18.13;;;;;;;1.98;94.06;94298.81;4994731;28;20212;-75
2024/01/29 04:35:05;;;;;;;22.60;18.50;;;;;;;1.97;94.06;94292.06;5000690;28;20191;-76
2024/01/29 04:37:31;;;;;;;22.13;19.33;;;;;;;2.31;92.63;94299.88;5005298;28;20257;-73
2024/01/29 04:39:56;;;;;;;19.93;17.93;;;;;;;2.23;92.72;94307.72;5001146;28;20243;-75
2024/01/29 04:42:22;;;;;;;21.73;18.73;;;;;;;2.14;93.05;94311.41;5001170;28;20231;-76
2024/01/29 04:44:47;;;;;;;21.43;19.20;;;;;;;2.08;93.97;94312.16;5008294;28;20190;-77
2024/01/29 04:47:12;;;;;;;23.63;18.40;;;;;;;2.10;93.85;94305.06;5008487;28;20215;-74
2024/01/29 04:49:38;;;;;;;22.53;20.03;;;;;;;2.09;94.09;94313.75;5001417;28;20211;-75
2024/01/29 04:52:04;;;;;;;21.77;19.67;;;;;;;2.13;94.46;94317.56;4991395;28;20323;-74
2024/01/29 04:54:30;;;;;;;26.27;19.53;;;;;;;2.07;94.08;94331.19;4988071;28;20184;-78
2024/01/29 04:56:55;;;;;;;19.90;17.33;;;;;;;2.10;94.09;94323.09;4989193;28;20219;-74
2024/01/29 04:59:21;;;;;;;19.47;17.77;;;;;;;2.01;94.25;94327.56;4992361;28;20192;-73
2024/01/29 05:01:46;;;;;;;18.53;16.53;;;;;;;2.09;93.79;94331.78;5000120;28;20226;-74
2024/01/29 05:04:11;;;;;;;18.80;16.80;;;;;;;2.24;93.16;94343.59;5002490;28;20220;-71
2024/01/29 05:06:37;;;;;;;26.83;19.63;;;;;;;2.12;93.15;94345.09;5004561;28;20301;-72
2024/01/29 05:09:02;;;;;;;24.30;19.43;;;;;;;2.00;93.39;94345.75;5007678;28;20200;-72
2024/01/29 05:11:27;;;;;;;22.13;19.30;;;;;;;2.02;93.95;94346.38;5006789;28;20318;-73
2024/01/29 05:13:53;;;;;;;22.77;19.10;;;;;;;2.15;92.84;94351.66;5021629;28;20184;-75
2024/01/29 05:16:18;;;;;;;19.93;17.90;;;;;;;2.15;92.66;94356.81;5009846;28;20227;-73
2024/01/29 05:18:44;;;;;;;21.70;18.27;;;;;;;2.01;93.38;94350.72;5001059;28;20233;-75
2024/01/29 05:21:11;;;;;;;18.97;16.90;;;;;;;2.10;93.14;94349.63;5007625;28;20227;-77
2024/01/29 05:23:36;;;;;;;20.07;18.00;;;;;;;2.10;92.54;94356.56;5013451;28;20277;-77
2024/01/29 05:26:03;;;;;;;18.63;16.83;;;;;;;2.11;93.09;94353.00;5028874;28;20235;-78
2024/01/29 05:28:28;;;;;;;18.23;16.53;;;;;;;2.28;91.64;94359.50;5007240;28;20191;-77
2024/01/29 05:30:53;;;;;;;17.17;15.53;;;;;;;2.03;92.95;94353.94;4992957;28;20247;-78
2024/01/29 05:33:19;;;;;;;18.13;16.53;;;;;;;1.96;93.41;94352.28;4998137;28;20215;-77
2024/01/29 05:35:44;;;;;;;17.23;15.57;;;;;;;2.06;93.04;94357.91;5006417;28;20223;-72
2024/01/29 05:38:10;;;;;;;17.37;15.60;;;;;;;1.98;94.01;94360.63;4997349;28;20210;-73
2024/01/29 05:40:35;;;;;;;17.23;15.37;;;;;;;1.96;93.51;94352.28;5005565;28;20235;-73
2024/01/29 05:43:00;;;;;;;18.00;16.33;;;;;;;1.87;93.02;94340.50;5006622;28;20194;-74
2024/01/29 05:45:26;;;;;;;18.43;15.90;;;;;;;1.98;93.59;94363.97;4998861;28;20188;-74
2024/01/29 05:47:51;;;;;;;19.67;17.73;;;;;;;1.65;94.19;94327.59;4996008;28;20252;-77
2024/01/29 05:50:16;;;;;;;19.17;17.17;;;;;;;2.06;98.71;94355.31;5010628;28;20287;-73
2024/01/29 05:52:42;;;;;;;20.00;18.33;;;;;;;1.98;95.74;94370.94;4998663;28;20216;-73
2024/01/29 05:55:08;;;;;;;17.37;15.70;;;;;;;1.99;94.84;94357.06;5004368;28;20196;-74
2024/01/29 05:57:34;;;;;;;18.63;16.80;;;;;;;1.84;93.60;94348.59;5013452;28;20240;-73
2024/01/29 05:59:59;;;;;;;16.33;14.73;;;;;;;1.90;94.17;94358.16;5013025;28;20200;-76
2024/01/29 06:02:24;;;;;;;16.93;15.53;;;;;;;1.99;93.32;94363.03;5002559;28;20253;-75
2024/01/29 06:04:50;;;;;;;16.10;14.83;;;;;;;1.99;93.64;94372.50;5007128;28;20191;-75
2024/01/29 06:07:15;;;;;;;16.63;15.23;;;;;;;1.95;92.84;94350.66;5000606;28;20397;-74
2024/01/29 06:09:40;;;;;;;17.00;15.50;;;;;;;2.08;91.95;94367.06;4998725;28;20787;-82
2024/01/29 06:12:06;;;;;;;16.97;15.47;;;;;;;2.05;92.93;94367.44;5015158;28;20229;-76
2024/01/29 06:14:32;;;;;;;16.30;14.27;;;;;;;2.02;93.20;94378.09;4996855;28;20194;-75
2024/01/29 06:16:58;;;;;;;17.90;16.40;;;;;;;2.14;92.27;94373.25;5003017;28;20310;-76
2024/01/29 06:19:24;;;;;;;17.40;15.80;;;;;;;2.15;92.51;94367.91;5016867;28;20299;-77
2024/01/29 06:21:50;;;;;;;16.50;15.07;;;;;;;2.24;92.40;94376.31;5006009;28;20227;-77
2024/01/29 06:24:15;;;;;;;15.70;14.43;;;;;;;2.19;91.91;94368.34;5006859;28;20198;-76
2024/01/29 06:26:41;;;;;;;19.00;14.73;;;;;;;2.30;91.24;94373.81;5004891;28;20249;-79
2024/01/29 06:29:07;;;;;;;16.53;15.00;;;;;;;2.26;91.93;94375.16;5017596;28;20256;-78
2024/01/29 06:31:32;;;;;;;16.57;14.83;;;;;;;2.42;90.77;94381.81;5004442;28;20305;-77
2024/01/29 06:33:58;;;;;;;16.77;15.07;;;;;;;2.36;90.43;94380.00;5007412;28;20176;-75
2024/01/29 06:36:23;;;;;;;16.40;15.07;;;;;;;2.50;89.92;94384.28;5000051;28;20240;-75
2024/01/29 06:38:49;;;;;;;19.10;15.17;;;;;;;2.54;89.64;94388.06;5010786;28;20945;-74
2024/01/29 06:41:27;;;;;;;17.70;16.00;;;;;;;2.65;88.59;94397.88;4995821;28;20227;-73
2024/01/29 06:43:54;;;;;;;17.30;15.87;;;;;;;2.66;86.77;94386.59;4999967;28;20179;-71
2024/01/29 06:46:20;;;;;;;16.93;15.13;;;;;;;2.90;85.46;94405.00;5003517;28;20258;-74
2024/01/29 06:48:45;;;;;;;19.10;16.67;;;;;;;2.82;85.56;94406.91;5004657;28;20191;-75
2024/01/29 06:51:11;;;;;;;17.37;15.93;;;;;;;2.65;85.88;94405.59;5001314;28;20238;-75
2024/01/29 06:53:37;;;;;;;16.67;15.07;;;;;;;2.45;87.03;94391.75;5006171;28;20184;-76
2024/01/29 06:56:04;;;;;;;15.63;14.13;;;;;;;2.84;87.48;94402.38;5008893;28;20273;-75
2024/01/29 06:58:30;;;;;;;17.60;15.80;;;;;;;2.62;86.52;94405.97;5003978;28;20184;-77
2024/01/29 07:00:55;;;;;;;17.33;15.93;;;;;;;2.74;85.02;94413.03;5003670;28;20254;-77
2024/01/29 07:03:21;;;;;;;15.10;13.87;;;;;;;2.42;86.00;94402.44;4994712;28;20177;-74
2024/01/29 07:05:49;;;;;;;16.30;14.87;;;;;;;2.50;86.10;94402.31;5019797;28;20218;-74
2024/01/29 07:08:16;;;;;;;16.80;15.50;;;;;;;2.75;86.01;94409.47;5004215;28;20236;-76
2024/01/29 07:10:41;;;;;;;16.90;15.37;;;;;;;2.65;85.73;94410.75;5001485;28;20310;-79
2024/01/29 07:13:07;;;;;;;16.73;15.33;;;;;;;2.88;85.78;94401.81;5007923;28;20187;-76
2024/01/29 07:15:32;;;;;;;17.57;15.97;;;;;;;2.53;84.22;94407.09;5009643;28;20223;-78
2024/01/29 07:17:57;;;;;;;16.73;15.43;;;;;;;2.55;83.51;94410.28;5004598;28;20205;-78
2024/01/29 07:20:23;;;;;;;15.07;13.90;;;;;;;2.60;82.80;94410.53;5008223;28;20236;-78
2024/01/29 07:22:48;;;;;;;14.87;13.73;;;;;;;2.43;81.86;94411.78;5013064;28;20187;-76
2024/01/29 07:25:13;;;;;;;15.70;14.60;;;;;;;2.68;81.85;94413.78;5025343;28;20191;-75
2024/01/29 07:27:39;;;;;;;16.03;14.50;;;;;;;2.89;80.80;94407.78;5009209;28;20192;-78
2024/01/29 07:30:05;;;;;;;14.67;13.40;;;;;;;3.02;80.23;94411.25;5029409;28;20255;-78
2024/01/29 07:32:33;;;;;;;14.17;13.03;;;;;;;2.93;79.66;94393.50;4999985;28;20254;-77
2024/01/29 07:35:00;;;;;;;15.60;14.20;;;;;;;2.90;80.42;94414.53;5011064;28;20187;-78
2024/01/29 07:37:27;;;;;;;14.63;13.53;;;;;;;3.05;78.92;94415.25;5001419;28;20215;-77
2024/01/29 07:39:52;;;;;;;15.07;13.97;;;;;;;3.12;79.35;94414.31;5004067;28;20248;-78
2024/01/29 07:42:17;;;;;;;14.60;13.40;;;;;;;2.99;79.82;94418.56;4998108;28;20290;-78
2024/01/29 07:44:43;;;;;;;15.40;14.20;;;;;;;3.17;79.23;94424.06;5008216;28;20167;-77
2024/01/29 07:47:08;;;;;;;15.37;14.17;;;;;;;3.12;78.50;94424.63;5008958;28;20249;-78
2024/01/29 07:49:33;;;;;;;15.20;13.07;;;;;;;2.92;79.09;94428.84;5015446;28;20187;-78
2024/01/29 07:51:59;;;;;;;15.83;14.40;;;;;;;3.20;78.06;94418.50;5003124;28;20238;-76
2024/01/29 07:54:24;;;;;;;16.27;14.97;;;;;;;2.99;78.96;94421.94;5001712;28;20254;-78
2024/01/29 07:56:49;;;;;;;16.50;15.13;;;;;;;2.88;79.89;94424.25;5005699;28;20207;-77
2024/01/29 07:59:15;;;;;;;15.90;14.60;;;;;;;2.86;79.97;94421.84;5004464;28;20192;-77
2024/01/29 08:01:40;;;;;;;15.27;13.87;;;;;;;3.42;78.04;94430.34;5006182;28;20279;-78
2024/01/29 08:04:05;;;;;;;15.73;14.33;;;;;;;3.67;75.25;94422.94;5008492;28;20190;-77
2024/01/29 08:06:32;;;;;;;16.87;15.43;;;;;;;3.75;75.41;94427.94;5000332;28;20421;-77
2024/01/29 08:08:57;;;;;;;15.30;13.83;;;;;;;3.29;77.40;94422.53;5002605;28;20192;-77
2024/01/29 08:11:23;;;;;;;15.13;13.90;;;;;;;3.58;75.25;94411.94;5006956;28;20230;-78
2024/01/29 08:13:48;;;;;;;16.50;14.90;;;;;;;3.41;75.62;94425.38;5005782;28;20274;-78
2024/01/29 08:16:13;;;;;;;15.43;14.13;;;;;;;3.68;74.49;94437.44;5011141;28;20227;-78
2024/01/29 08:18:39;;;;;;;15.23;13.90;;;;;;;3.54;73.87;94421.09;5002369;28;20187;-78
2024/01/29 08:21:04;;;;;;;15.60;14.07;;;;;;;3.78;72.21;94451.59;5006647;28;20243;-78
2024/01/29 08:23:30;;;;;;;15.47;14.17;;;;;;;4.11;70.28;94444.75;4992293;28;20184;-78
2024/01/29 08:25:55;;;;;;;13.97;12.80;;;;;;;3.48;71.73;94446.84;5006103;28;20222;-77
2024/01/29 08:28:21;;;;;;;15.00;13.60;;;;;;;3.79;72.03;94453.19;5004833;28;20190;-77
2024/01/29 08:30:47;;;;;;;14.43;13.43;;;;;;;4.22;69.44;94458.91;5005913;28;20255;-77
2024/01/29 08:33:12;;;;;;;14.00;12.93;;;;;;;4.26;68.33;94467.88;5015806;28;20248;-77
2024/01/29 08:35:37;;;;;;;13.37;12.47;;;;;;;4.10;66.16;94470.78;4999632;28;20234;-77
2024/01/29 08:38:03;;;;;;;14.13;12.70;;;;;;;3.81;67.28;94471.88;5008426;28;20199;-77
2024/01/29 08:40:28;;;;;;;12.47;11.67;;;;;;;4.18;67.03;94475.78;5014391;28;20242;-78
2024/01/29 08:42:53;;;;;;;14.20;13.20;;;;;;;4.40;65.62;94475.47;5006033;28;20230;-78
2024/01/29 08:45:19;;;;;;;14.33;13.40;;;;;;;4.28;64.97;94479.59;5002506;28;20179;-77
2024/01/29 08:47:44;;;;;;;13.97;13.00;;;;;;;4.37;65.18;94482.81;5003767;28;20219;-77
2024/01/29 08:50:10;;;;;;;14.40;13.40;;;;;;;4.34;63.77;94484.00;4993643;28;20191;-77
2024/01/29 08:52:35;;;;;;;13.47;12.50;;;;;;;4.16;63.45;94486.34;5004357;28;20279;-78
2024/01/29 08:55:00;;;;;;;13.27;12.37;;;;;;;4.17;59.47;94487.13;5005343;28;20197;-77
2024/01/29 08:57:28;;;;;;;12.37;11.57;;;;;;;3.98;60.72;94478.31;5014552;28;20237;-78
2024/01/29 08:59:53;;;;;;;13.67;12.43;;;;;;;4.06;60.43;94485.09;4992576;28;20176;-76
2024/01/29 09:02:18;;;;;;;13.10;12.20;;;;;;;3.95;59.08;94470.16;5011322;28;20229;-77
2024/01/29 09:04:44;;;;;;;11.97;11.27;;;;;;;4.07;61.50;94484.09;4999183;28;20185;-76
2024/01/29 09:07:09;;;;;;;12.70;11.67;;;;;;;4.06;59.29;94485.88;5003231;28;20219;-77
2024/01/29 09:09:35;;;;;;;12.33;11.53;;;;;;;4.19;59.65;94487.72;5000037;28;20188;-76
2024/01/29 09:12:01;;;;;;;12.10;11.33;;;;;;;3.94;58.45;94477.09;4999542;28;20565;-76
2024/01/29 09:14:27;;;;;;;12.03;11.43;;;;;;;3.74;58.10;94486.53;5004600;28;20187;-77
2024/01/29 09:16:53;;;;;;;12.70;11.63;;;;;;;3.61;59.96;94491.63;5008231;28;20231;-77
2024/01/29 09:19:20;;;;;;;12.00;11.30;;;;;;;3.56;58.94;94488.81;4997150;28;20194;-78
2024/01/29 09:21:49;;;;;;;12.33;11.63;;;;;;;3.41;60.34;94477.78;5000730;28;20224;-77
2024/01/29 09:24:15;;;;;;;11.93;11.23;;;;;;;3.39;60.62;94484.94;4999854;28;20180;-77
2024/01/29 09:26:40;;;;;;;12.20;11.53;;;;;;;3.42;60.95;94476.03;5004441;28;20246;-77
2024/01/29 09:29:05;;;;;;;12.73;11.80;;;;;;;3.41;61.55;94470.06;4994094;28;20188;-78
2024/01/29 09:31:32;;;;;;;13.70;12.63;;;;;;;3.48;61.94;94470.91;4995457;28;20234;-77
2024/01/29 09:33:57;;;;;;;12.83;11.93;;;;;;;3.58;61.34;94473.16;5000286;28;20192;-78
2024/01/29 09:36:23;;;;;;;13.10;11.90;;;;;;;3.69;60.63;94473.38;4996561;28;20230;-77
2024/01/29 09:38:48;;;;;;;14.23;12.93;;;;;;;3.42;60.64;94458.75;5001080;28;20227;-77
2024/01/29 09:41:14;;;;;;;12.57;11.57;;;;;;;3.83;59.99;94466.53;4995024;28;20315;-77
2024/01/29 09:43:39;;;;;;;13.70;12.80;;;;;;;3.54;63.35;94464.97;4998705;28;20179;-77
2024/01/29 09:46:07;;;;;;;13.30;12.03;;;;;;;3.88;61.61;94467.53;4998497;28;20262;-79
2024/01/29 09:48:37;;;;;;;13.93;12.93;;;;;;;4.32;58.43;94465.31;5000664;28;20251;-78
2024/01/29 09:51:03;;;;;;;12.63;11.77;;;;;;;3.98;59.86;94456.84;5010274;28;20238;-78
2024/01/29 09:53:34;;;;;;;13.07;11.37;;;;;;;4.25;59.68;94453.38;4997820;28;20191;-78
2024/01/29 09:55:59;;;;;;;12.47;11.67;;;;;;;3.81;58.91;94451.22;4994605;28;20250;-77
2024/01/29 09:58:24;;;;;;;12.00;11.30;;;;;;;3.49;60.27;94451.84;5008671;28;20184;-78
2024/01/29 10:00:51;;;;;;;14.07;13.17;;;;;;;3.37;63.06;94452.56;5007099;28;20328;-77
2024/01/29 10:03:24;;;;;;;13.23;12.17;;;;;;;3.65;61.16;94461.06;5026839;28;20177;-78
2024/01/29 10:05:51;;;;;;;12.83;11.93;;;;;;;3.63;62.22;94457.88;4997373;28;20298;-77
2024/01/29 10:08:17;;;;;;;12.43;11.73;;;;;;;3.48;61.65;94459.75;5001992;28;20175;-78
2024/01/29 10:10:43;;;;;;;13.33;12.27;;;;;;;3.58;62.47;94457.66;5003655;28;20224;-77
2024/01/29 10:13:09;;;;;;;12.20;11.30;;;;;;;3.49;62.04;94462.16;4998050;28;20217;-78
2024/01/29 10:15:35;;;;;;;11.73;11.13;;;;;;;3.37;62.71;94466.25;5005262;28;20242;-78
2024/01/29 10:18:00;;;;;;;12.33;11.53;;;;;;;3.34;62.21;94464.06;5004252;28;20225;-77
2024/01/29 10:20:26;;;;;;;13.47;12.67;;;;;;;3.47;63.16;94458.19;5004881;28;20180;-77
2024/01/29 10:23:02;;;;;;;12.83;12.00;;;;;;;3.57;62.02;94462.00;5028732;28;20188;-77
2024/01/29 10:25:29;;;;;;;13.30;12.30;;;;;;;3.67;62.78;94454.72;5013176;28;20188;-77
2024/01/29 10:28:13;;;;;;;13.20;12.10;;;;;;;3.87;62.63;94450.44;5006034;28;20198;-78
2024/01/29 10:30:39;;;;;;;12.40;11.40;;;;;;;3.90;61.26;94451.84;4997739;28;20251;-77
2024/01/29 10:33:08;;;;;;;12.43;11.63;;;;;;;3.96;61.35;94438.13;5003812;28;20197;-77
2024/01/29 10:35:35;;;;;;;12.43;11.63;;;;;;;3.69;63.12;94442.41;5005833;28;20228;-77
2024/01/29 10:38:04;;;;;;;13.23;12.43;;;;;;;3.82;61.20;94439.06;5009714;28;20240;-78
2024/01/29 10:40:31;;;;;;;12.07;11.27;;;;;;;3.83;61.44;94444.06;5009851;28;20239;-78
2024/01/29 10:42:58;;;;;;;12.67;11.93;;;;;;;3.82;61.84;94446.81;4998781;28;20184;-77
2024/01/29 10:45:24;;;;;;;11.90;11.27;;;;;;;3.78;62.38;94433.53;5004272;28;20199;-77
2024/01/29 10:47:56;;;;;;;12.40;11.40;;;;;;;4.24;60.04;94437.03;5007931;28;20203;-78
2024/01/29 10:50:22;;;;;;;11.00;10.47;;;;;;;4.08;59.42;94439.16;5001370;28;20765;-77
2024/01/29 10:52:50;;;;;;;10.97;10.37;;;;;;;3.77;58.95;94428.53;5004360;28;20249;-78
2024/01/29 10:55:16;;;;;;;12.63;11.80;;;;;;;3.62;60.29;94441.59;4999838;28;20183;-78
2024/01/29 10:57:46;;;;;;;13.53;11.90;;;;;;;3.76;60.24;94443.25;5004581;28;20188;-77
2024/01/29 11:00:14;;;;;;;11.73;11.03;;;;;;;3.80;61.03;94434.09;5008793;28;20803;-77
2024/01/29 11:02:40;;;;;;;11.33;10.63;;;;;;;3.88;60.41;94431.34;5004847;28;20184;-77
2024/01/29 11:05:08;;;;;;;12.67;11.53;;;;;;;3.80;61.05;94431.53;5010083;28;20647;-78
2024/01/29 11:07:35;;;;;;;12.13;11.43;;;;;;;3.66;60.34;94429.09;5010378;28;20210;-78
2024/01/29 11:10:16;;;;;;;12.70;11.50;;;;;;;3.63;60.31;94422.50;5009026;28;20556;-77
2024/01/29 11:12:42;;;;;;;12.23;11.43;;;;;;;3.20;61.17;94426.25;5010002;28;20231;-77
2024/01/29 11:15:09;;;;;;;11.97;11.23;;;;;;;3.12;60.58;94374.78;5003248;28;20196;-77
2024/01/29 11:17:35;;;;;;;12.80;11.60;;;;;;;3.48;60.51;94416.69;5005614;28;20227;-76